Pagina principale
METAR-TAF:

METAR-TAF

Aeroporti :

Funafuti, Tuvalu

latitudine: 08-31S, longitudine: 179-13E, altezza: 1 m

Osservazione

Il bollettino è stato emesso 36 minuti fa, alle 05:00 UTC
Vento 3 kt da nord/nord-est
Temperature 30°C
Umidità 70%
Pressione 1003 hPa
Visibilità 10 km o più
Poco nuvoloso ad un'altezza di 2000 ft, Cumulo congesto.
Nuvoloso ad un'altezza di 31000 ft

METAR: NGFU 240500Z 02003KT 9999 FEW020TCU BKN310 30/24 Q1003

Ora: 17:36 (05:36 UTC)

Previsione

Il bollettino è stato emesso 15 minuti fa, alle 05:21 UTC
Previsione valida dal 24 alle 06 UTC al 25 alle 06 UTC
Vento 7 kt da nord/nord-est
Visibilità 10 km o più
Nubi sparse ad un'altezza di 1900 ft
Probabilità 30% :
Temporaneamente
dal 24 alle 06 UTC al 24 alle 12 UTC
Visibilità: 5000 m
Poco nuvoloso ad un'altezza di 1800 ft, Cumulonembo.
temporale, pioggia

TAF: NGFU 240521Z 2406/2506 03007KT 9999 SCT019 PROB30 TEMPO 2406/2412 5000 TSRA FEW018CB

Osservazioni e previsioni meteorologiche di più di 4000 aeroporti (messaggi METAR e TAF).

Le stazioni disponibili sono rappresentate dai dischi gialli e rossi sulla carta.

Puntare il mouse per vedere il nome della stazione.

Clicca sopra per visualizzare le osservazioni e previsioni meteorologiche.

Per cambiare la mappa : fare clic sui pulsanti verdi con una croce nera per ingrandire, il pulsante verde con un trattino per diminuire, o sulla freccia verde per le mappe adiacenti.


METAR-TAF: